Etusivu
METAR-TAF:

METAR-TAF

Lentoasemat :

Sundsvall-Härnösand, Ruotsi

Sundsvall-Timrån lentoasema

Leveyspiiri: 62-32N, Pituuspiiri: 017-27E, korkeus merenpinnasta: 4 m

Tämänhetkinen sää

Tämä raportti tehtiin 35 minuuttia sitten, kello 04.20 UTC
Tuuli 12 kn luoteesta
Lämpötila 8°C
Kosteus 61%
Ilmanpaine 1012 hPa
Näkyvyys 10 km tai enemmän
ei pilviä alle 1500 m:ssä eikä cumulonimbus-pilviä

METAR: ESNN 230420Z 31012KT CAVOK 08/01 Q1012

Aika: 06:55 (04:55 UTC)

Sääennuste

Tämä raportti tehtiin 1 tunti ja 25 minuuttia sitten, kello 03.30 UTC
Ennuste voimassa 23. päivästä klo 04 UTC - 23. päivään klo 12 UTC
Tuuli 10 kn lännestä/luoteesta
Näkyvyys 10 km tai enemmän
ei pilviä alle 1500 m:ssä eikä cumulonimbus-pilviä
Tulossa
23. päivästä klo 08 UTC - 23. päivään klo 10 UTC
Tuuli 10 kn idästä

TAF: ESNN 230330Z 2304/2312 30010KT CAVOK BECMG 2308/2310 08010KT

Säähavainnot ja -ennusteet yli 4000 lentoasemalta (METAR- ja TAF-raportit).

Käytössä olevat sääasemat on merkitty karttaan keltaisilla ja punaisilla pisteillä.

Aseta hiiri pisteen päälle nähdäksesi sääaseman nimen.

Klikkaa sitten nähdäksesi säähavainnot ja -ennusteet.

Kartan vaihtaminen: klikkaa mustalla rastilla varustettuja vihreitä pisteitä, niin voit zoomata sisään; viivalla varustettua vihreää pistettä, niin voit zoomata ulos tai vihreitä nuolia, niin pääset viereisille kartoille.


METAR-TAF: